This is the latest recevied weather packets stored in our database for station/object KD7YDD. If no packets are shown the sender has not sent any weather packets the latest 10 day(s).
| Time | Temp. | Humidity | Pressure | Rain* | Wind** | Luminosity | Snow |
|---|---|---|---|---|---|---|---|
| 1778112117 | 20° C | 68% | 1018.6 hPa | 0 mm | - | 90 W/m² | - |
| 1778110275 | 20° C | 68% | 1018.7 hPa | 0 mm | - | 65 W/m² | - |
| 1778107875 | 20.56° C | 67% | 1019.1 hPa | 0 mm | - | 663 W/m² | - |
| 1778106675 | 21.11° C | 66% | 1019.3 hPa | 0 mm | - | 705 W/m² | - |
| 1778106075 | 21.11° C | 66% | 1019.4 hPa | 0 mm | - | 719 W/m² | - |
| 1778100677 | 20.56° C | 67% | 1020.1 hPa | 0 mm | - | 838 W/m² | - |
| 1778094077 | 20.56° C | 70% | 1020.6 hPa | 0 mm | - | 306 W/m² | - |
| 1778091678 | 19.44° C | 73% | 1020.6 hPa | 0 mm | - | 63 W/m² | - |
| 1778089277 | 17.78° C | 78% | 1020.7 hPa | 0 mm | - | 169 W/m² | - |
| 1778085681 | 15° C | 84% | 1021.1 hPa | 0 mm | - | 40 W/m² | - |
| 1778071876 | 12.22° C | 89% | 1020.4 hPa | 0 mm | - | 0 W/m² | - |
| 1778071278 | 12.22° C | 89% | 1020.4 hPa | 0 mm | - | 0 W/m² | - |
| 1778068876 | 12.22° C | 89% | 1020.4 hPa | 0 mm | - | 0 W/m² | - |
| 1778064097 | 12.22° C | 89% | 1019.7 hPa | 0 mm | - | 0 W/m² | - |
| 1778055096 | 12.22° C | 87% | 1019.5 hPa | 0 mm | - | 0 W/m² | - |
| 1778052680 | 12.78° C | 86% | 1019.1 hPa | 0 mm | - | 0 W/m² | - |
| 1778050297 | 12.78° C | 85% | 1018.9 hPa | 0 mm | - | 0 W/m² | - |
| 1778049676 | 12.78° C | 85% | 1018.8 hPa | 0 mm | - | 0 W/m² | - |
| 1778046080 | 13.89° C | 84% | 1018.3 hPa | 0 mm | - | 0 W/m² | - |
| 1778043078 | 13.89° C | 83% | 1018 hPa | 0 mm | - | 0 W/m² | - |
| 1778041876 | 14.44° C | 82% | 1017.6 hPa | 0 mm | - | 0 W/m² | - |
| 1778040701 | 14.44° C | 80% | 1017.4 hPa | 0 mm | - | 0 W/m² | - |
| 1778037676 | 15° C | 79% | 1016.6 hPa | 0 mm | - | 0 W/m² | - |
| 1778032280 | 16.11° C | 75% | 1015.9 hPa | 0 mm | - | 23 W/m² | - |
| 1778031080 | 16.67° C | 75% | 1015.9 hPa | 0 mm | - | 39 W/m² | - |
* Rain latest hour (hover to see other rain measurements)
** Current wind speed in m/s (hover to see current wind gust speed)